Time;durP1;ratioP1;P1;durP2;ratioP2;P2;SDS_P1;SDS_P2;PMS_P1;PMS_P2;Temp;Humidity;BMP_temperature;BMP_pressure;BME280_temperature;BME280_humidity;BME280_pressure;Samples;Min_cycle;Max_cycle;Signal;HPM_P1;HPM_P2
2023/06/06 00:00:57;;;;;;;3.00;1.05;;;9.20;99.90;;;;;;5112490;28;20035;-64
2023/06/06 00:03:25;;;;;;;5.05;1.33;;;9.20;99.90;;;;;;5094867;28;20047;-64
2023/06/06 00:05:51;;;;;;;8.63;1.42;;;9.20;99.90;;;;;;5094937;28;20377;-64
2023/06/06 00:08:19;;;;;;;3.53;1.38;;;9.20;99.90;;;;;;5094301;28;20035;-64
2023/06/06 00:10:46;;;;;;;2.78;1.38;;;9.10;99.90;;;;;;5112998;28;20396;-64
2023/06/06 00:13:13;;;;;;;2.65;1.38;;;9.10;99.90;;;;;;5077763;28;20388;-64
2023/06/06 00:15:40;;;;;;;2.70;1.30;;;9.20;99.90;;;;;;5093951;28;20038;-64
2023/06/06 00:18:07;;;;;;;1.58;1.05;;;9.10;99.90;;;;;;5094734;28;20373;-64
2023/06/06 00:20:32;;;;;;;1.98;0.95;;;9.10;99.90;;;;;;5094604;28;20096;-64
2023/06/06 00:22:59;;;;;;;1.63;0.73;;;9.10;99.90;;;;;;5093835;28;20039;-64
2023/06/06 00:25:25;;;;;;;2.80;1.20;;;9.10;99.90;;;;;;5094251;28;20741;-64
2023/06/06 00:27:51;;;;;;;3.70;1.55;;;9.10;99.90;;;;;;5094272;28;20035;-64
2023/06/06 00:30:17;;;;;;;6.43;1.08;;;9.10;99.90;;;;;;5093995;28;20122;-64
2023/06/06 00:32:43;;;;;;;4.20;1.13;;;9.10;99.90;;;;;;5077360;28;20052;-64
2023/06/06 00:35:10;;;;;;;2.70;1.13;;;9.00;99.90;;;;;;5077288;28;20035;-64
2023/06/06 00:37:35;;;;;;;2.63;1.33;;;9.00;99.90;;;;;;5093531;28;20051;-64
2023/06/06 00:40:01;;;;;;;2.20;1.60;;;8.90;99.90;;;;;;5094051;28;20048;-64
2023/06/06 00:42:27;;;;;;;2.15;1.05;;;8.90;99.90;;;;;;5077347;28;20097;-64
2023/06/06 00:44:53;;;;;;;2.70;1.30;;;8.90;99.90;;;;;;5093598;28;20079;-64
2023/06/06 00:47:19;;;;;;;2.13;0.93;;;8.90;99.90;;;;;;5077087;28;20438;-64
2023/06/06 00:49:47;;;;;;;3.03;1.60;;;8.90;99.90;;;;;;5111712;28;20544;-64
2023/06/06 00:52:14;;;;;;;4.13;1.75;;;8.90;99.90;;;;;;5094225;28;20044;-64
2023/06/06 00:54:41;;;;;;;2.50;1.10;;;8.90;99.90;;;;;;5093632;28;20479;-64
2023/06/06 00:57:08;;;;;;;1.70;1.20;;;8.90;99.90;;;;;;5111677;28;20035;-64
2023/06/06 00:59:35;;;;;;;2.20;0.98;;;8.90;99.90;;;;;;5093936;28;20762;-64
2023/06/06 01:02:04;;;;;;;2.78;1.15;;;8.80;99.90;;;;;;5093901;28;20028;-64
2023/06/06 01:04:30;;;;;;;7.05;1.48;;;8.80;99.90;;;;;;5111498;28;20043;-64
2023/06/06 01:06:57;;;;;;;2.85;0.77;;;8.80;99.90;;;;;;5093731;28;20201;-64
2023/06/06 01:09:23;;;;;;;2.85;1.40;;;8.70;99.90;;;;;;5093478;28;20096;-64
2023/06/06 01:12:08;;;;;;;2.45;0.93;;;8.70;99.90;;;;;;5093036;28;20111;-64
2023/06/06 01:14:41;;;;;;;5.05;0.98;;;8.70;99.90;;;;;;5111500;28;20118;-64
2023/06/06 01:17:09;;;;;;;2.97;1.30;;;8.70;99.90;;;;;;5111900;28;20036;-64
2023/06/06 01:19:37;;;;;;;3.67;1.27;;;8.70;99.90;;;;;;5092892;28;20072;-64
2023/06/06 01:22:04;;;;;;;3.53;1.10;;;8.70;99.90;;;;;;5093099;28;20054;-64
2023/06/06 01:24:31;;;;;;;5.03;1.60;;;8.70;99.90;;;;;;5093422;28;20040;-64
2023/06/06 01:26:57;;;;;;;2.92;1.27;;;8.70;99.90;;;;;;5092740;28;20051;-64
2023/06/06 01:29:23;;;;;;;2.15;0.88;;;8.70;99.90;;;;;;5093393;28;20047;-64
2023/06/06 01:32:16;;;;;;;3.03;1.45;;;8.60;99.90;;;;;;5075568;28;20427;-64
2023/06/06 01:35:14;;;;;;;2.40;1.60;;;8.60;99.90;;;;;;5046729;28;20062;-64
2023/06/06 01:38:07;;;;;;;5.20;1.58;;;8.60;99.90;;;;;;5093298;28;20055;-64
2023/06/06 01:40:33;;;;;;;4.78;0.75;;;8.60;99.90;;;;;;5092483;28;20070;-64
2023/06/06 01:43:03;;;;;;;4.50;1.52;;;8.70;99.90;;;;;;5093102;28;20039;-64
2023/06/06 01:45:32;;;;;;;3.08;1.30;;;8.70;99.90;;;;;;5111197;28;20040;-64
2023/06/06 01:47:59;;;;;;;2.17;1.17;;;8.60;99.90;;;;;;5111419;28;20028;-64
2023/06/06 01:50:25;;;;;;;3.63;1.15;;;8.70;99.90;;;;;;5110697;28;20087;-64
2023/06/06 01:52:55;;;;;;;2.17;1.38;;;8.60;99.90;;;;;;5110061;28;20515;-64
2023/06/06 01:55:22;;;;;;;2.20;1.33;;;8.70;99.90;;;;;;5092643;28;20122;-64
2023/06/06 01:57:48;;;;;;;1.35;1.05;;;8.70;99.90;;;;;;5110164;28;20043;-64
2023/06/06 02:00:16;;;;;;;5.25;1.08;;;8.70;99.90;;;;;;5091877;28;20039;-64
2023/06/06 02:02:43;;;;;;;2.92;1.75;;;8.70;99.90;;;;;;5092962;28;20054;-64
2023/06/06 02:05:09;;;;;;;3.38;1.13;;;8.70;99.90;;;;;;5110561;28;20485;-64
2023/06/06 02:07:37;;;;;;;2.05;1.23;;;8.60;99.90;;;;;;5110009;28;20487;-64
2023/06/06 02:10:04;;;;;;;2.67;1.25;;;8.60;99.90;;;;;;5075531;28;20498;-64
2023/06/06 02:12:31;;;;;;;6.32;1.45;;;8.60;99.90;;;;;;5092577;28;20031;-64
2023/06/06 02:14:58;;;;;;;2.13;1.27;;;8.50;99.90;;;;;;5109777;28;20039;-64
2023/06/06 02:17:23;;;;;;;5.85;1.60;;;8.50;99.90;;;;;;5075670;28;20408;-64
2023/06/06 02:19:49;;;;;;;4.80;1.85;;;8.50;99.90;;;;;;5092327;28;20039;-64
2023/06/06 02:22:15;;;;;;;2.42;1.23;;;8.50;99.90;;;;;;5109763;28;20040;-64
2023/06/06 02:24:42;;;;;;;3.22;1.92;;;8.40;99.90;;;;;;5092371;28;20039;-64
2023/06/06 02:27:09;;;;;;;3.22;1.38;;;8.50;99.90;;;;;;5092437;28;20046;-64
2023/06/06 02:29:38;;;;;;;2.95;1.75;;;8.50;99.90;;;;;;5109673;28;20036;-65
2023/06/06 02:32:04;;;;;;;3.53;1.33;;;8.50;99.90;;;;;;5091993;28;20508;-64
2023/06/06 02:34:30;;;;;;;4.63;2.05;;;8.50;99.90;;;;;;5110406;28;20043;-63
2023/06/06 02:36:56;;;;;;;3.50;2.00;;;8.50;99.90;;;;;;5091740;28;20734;-64
2023/06/06 02:39:23;;;;;;;3.00;1.40;;;8.50;99.90;;;;;;5092282;28;20032;-64
2023/06/06 02:41:52;;;;;;;7.70;1.55;;;8.50;99.90;;;;;;5074566;28;20067;-64
2023/06/06 02:44:19;;;;;;;3.53;1.27;;;8.40;99.90;;;;;;5092059;28;20125;-64
2023/06/06 02:46:46;;;;;;;6.57;1.63;;;8.50;99.90;;;;;;5110277;28;20044;-64
2023/06/06 02:49:12;;;;;;;2.90;1.75;;;8.50;99.90;;;;;;5109791;28;20127;-64
2023/06/06 02:51:37;;;;;;;3.80;1.67;;;8.50;99.90;;;;;;5109998;28;20131;-63
2023/06/06 02:54:03;;;;;;;3.22;1.42;;;8.40;99.90;;;;;;5091888;28;20043;-64
2023/06/06 02:56:29;;;;;;;4.03;1.63;;;8.40;99.90;;;;;;5091726;28;20039;-64
2023/06/06 02:58:55;;;;;;;2.13;1.30;;;8.40;99.90;;;;;;5091820;28;20399;-64
2023/06/06 03:01:21;;;;;;;7.13;1.65;;;8.40;99.90;;;;;;5091831;28;20515;-64
2023/06/06 03:03:47;;;;;;;2.38;1.58;;;8.40;99.90;;;;;;5091113;28;20035;-64
2023/06/06 03:06:15;;;;;;;3.90;1.35;;;8.40;99.90;;;;;;5110067;28;20155;-64
2023/06/06 03:08:44;;;;;;;3.45;1.58;;;8.40;99.90;;;;;;5091568;28;20048;-64
2023/06/06 03:11:11;;;;;;;4.85;1.98;;;8.40;99.90;;;;;;5093979;28;20040;-64
2023/06/06 03:13:37;;;;;;;6.50;1.65;;;8.40;99.90;;;;;;5095534;28;20071;-63
2023/06/06 03:16:04;;;;;;;3.88;1.45;;;8.50;99.90;;;;;;5095955;28;20245;-64
2023/06/06 03:18:31;;;;;;;3.75;1.67;;;8.50;99.90;;;;;;5078098;28;20032;-64
2023/06/06 03:20:57;;;;;;;4.82;1.75;;;8.60;99.90;;;;;;5078646;28;20556;-64
2023/06/06 03:23:23;;;;;;;5.88;2.08;;;8.70;99.90;;;;;;5114175;28;20032;-64
2023/06/06 03:25:51;;;;;;;5.10;1.67;;;8.70;99.90;;;;;;5095098;28;20043;-64
2023/06/06 03:28:18;;;;;;;4.50;1.58;;;8.80;99.90;;;;;;5095455;28;20055;-64
2023/06/06 03:30:47;;;;;;;2.60;1.30;;;8.80;99.90;;;;;;5095089;28;20403;-64
2023/06/06 03:33:14;;;;;;;2.60;1.25;;;8.80;99.90;;;;;;5095359;28;20066;-64
2023/06/06 03:35:42;;;;;;;4.15;1.40;;;8.80;99.90;;;;;;5078436;28;20064;-64
2023/06/06 03:38:08;;;;;;;2.92;1.85;;;8.80;99.90;;;;;;5113108;28;20100;-64
2023/06/06 03:40:34;;;;;;;5.13;1.58;;;8.90;99.90;;;;;;5095462;28;20046;-64
2023/06/06 03:43:00;;;;;;;7.35;2.05;;;8.90;99.90;;;;;;5078546;28;20063;-64
2023/06/06 03:45:26;;;;;;;3.38;1.30;;;9.00;99.90;;;;;;5094947;28;20377;-64
2023/06/06 03:47:53;;;;;;;2.72;1.70;;;9.00;99.90;;;;;;5113201;28;20627;-64
2023/06/06 03:50:19;;;;;;;4.18;1.90;;;9.00;99.90;;;;;;5113152;28;20131;-64
2023/06/06 03:52:45;;;;;;;4.90;1.92;;;9.00;99.90;;;;;;5094639;28;20123;-64
2023/06/06 03:55:11;;;;;;;2.42;1.23;;;9.00;99.90;;;;;;5113404;28;20510;-64
2023/06/06 03:57:38;;;;;;;4.15;2.15;;;9.00;99.90;;;;;;5095053;28;20038;-64
2023/06/06 04:00:10;;;;;;;2.67;1.40;;;9.10;99.90;;;;;;5112407;28;20073;-64
2023/06/06 04:02:40;;;;;;;2.30;1.33;;;9.10;99.90;;;;;;5095092;28;20046;-64
2023/06/06 04:05:06;;;;;;;2.92;1.27;;;9.10;99.90;;;;;;5095022;28;20058;-64
2023/06/06 04:07:32;;;;;;;1.48;0.80;;;9.20;99.90;;;;;;5112221;28;20114;-64
2023/06/06 04:09:58;;;;;;;3.63;1.52;;;9.20;99.90;;;;;;5094651;28;20114;-64
2023/06/06 04:12:24;;;;;;;3.17;1.58;;;9.30;99.90;;;;;;5077657;28;20122;-64
2023/06/06 04:14:50;;;;;;;2.85;1.67;;;9.30;99.90;;;;;;5094095;28;20048;-64
2023/06/06 04:17:18;;;;;;;4.18;1.67;;;9.40;99.90;;;;;;5094415;28;20043;-64
2023/06/06 04:19:45;;;;;;;4.07;1.83;;;9.50;99.90;;;;;;5093794;28;20077;-64
2023/06/06 04:22:11;;;;;;;5.35;2.20;;;9.50;99.90;;;;;;5094199;28;20077;-64
2023/06/06 04:24:36;;;;;;;1.98;1.30;;;9.60;99.90;;;;;;5113087;28;20449;-64
2023/06/06 04:27:03;;;;;;;6.60;1.73;;;9.70;99.90;;;;;;5093743;28;20528;-64
2023/06/06 04:29:33;;;;;;;2.92;1.55;;;9.70;99.90;;;;;;5094578;28;20044;-64
2023/06/06 04:32:04;;;;;;;4.65;1.55;;;9.80;99.90;;;;;;5094216;28;20499;-64
2023/06/06 04:34:31;;;;;;;3.10;1.80;;;9.90;99.90;;;;;;5093624;28;20047;-64
2023/06/06 04:37:03;;;;;;;6.30;2.03;;;9.90;99.90;;;;;;5112577;28;20104;-64
2023/06/06 04:39:31;;;;;;;5.53;2.00;;;10.00;99.90;;;;;;5094146;28;20040;-64
2023/06/06 04:41:58;;;;;;;3.17;1.25;;;10.00;99.90;;;;;;5111971;28;20490;-64
2023/06/06 04:44:26;;;;;;;3.60;2.08;;;10.10;99.90;;;;;;5094247;28;20122;-64
2023/06/06 04:46:52;;;;;;;3.63;2.03;;;10.10;99.90;;;;;;5112106;28;20036;-63
2023/06/06 04:49:23;;;;;;;7.93;1.75;;;10.20;99.90;;;;;;5076583;28;20085;-64
2023/06/06 04:51:48;;;;;;;2.38;1.65;;;10.30;99.90;;;;;;5090529;28;20519;-64
2023/06/06 04:54:14;;;;;;;3.22;1.90;;;10.40;99.90;;;;;;5090547;28;20048;-64
2023/06/06 04:56:40;;;;;;;6.43;1.60;;;10.40;99.90;;;;;;5089692;28;20554;-64
2023/06/06 04:59:06;;;;;;;4.22;1.65;;;10.50;99.90;;;;;;5073495;28;20071;-64
2023/06/06 05:01:36;;;;;;;4.03;2.38;;;10.60;99.90;;;;;;5090188;28;20085;-64
2023/06/06 05:04:03;;;;;;;4.38;1.17;;;10.60;99.90;;;;;;5073676;28;20126;-64
2023/06/06 05:06:34;;;;;;;2.90;1.30;;;10.70;99.90;;;;;;5090479;28;20678;-64
2023/06/06 05:09:07;;;;;;;3.95;1.50;;;10.80;99.90;;;;;;5089702;28;20051;-64
2023/06/06 05:11:35;;;;;;;4.13;1.98;;;10.90;99.90;;;;;;5091794;28;20052;-64
2023/06/06 05:14:02;;;;;;;2.75;1.52;;;11.00;99.90;;;;;;5090008;28;20101;-64
2023/06/06 05:16:27;;;;;;;5.07;1.60;;;11.10;99.90;;;;;;5089506;28;20089;-64
2023/06/06 05:18:53;;;;;;;3.38;1.85;;;11.20;99.90;;;;;;5088967;28;20032;-65
2023/06/06 05:21:20;;;;;;;2.88;1.52;;;11.30;99.90;;;;;;5091579;28;20043;-65
2023/06/06 05:23:46;;;;;;;2.80;1.67;;;11.40;99.90;;;;;;5089276;28;20048;-64
2023/06/06 05:26:12;;;;;;;3.22;1.63;;;11.50;99.90;;;;;;5089106;28;20044;-64
2023/06/06 05:28:39;;;;;;;5.85;2.10;;;11.60;99.90;;;;;;5088919;28;20042;-64
2023/06/06 05:31:08;;;;;;;4.75;2.05;;;11.60;99.90;;;;;;5089264;28;20094;-64
2023/06/06 05:33:38;;;;;;;6.17;1.93;;;11.70;99.90;;;;;;5088181;28;20055;-64
2023/06/06 05:36:04;;;;;;;5.57;2.17;;;11.80;99.90;;;;;;5089610;28;20122;-64
2023/06/06 05:38:31;;;;;;;2.95;1.38;;;11.90;99.90;;;;;;5090413;28;20032;-64
2023/06/06 05:40:56;;;;;;;5.35;1.40;;;12.00;99.90;;;;;;5072814;28;20032;-65
2023/06/06 05:43:22;;;;;;;4.75;1.52;;;12.10;99.90;;;;;;5091161;28;20078;-64
2023/06/06 05:45:48;;;;;;;4.15;1.67;;;12.20;99.90;;;;;;5088703;28;20055;-64
2023/06/06 05:48:14;;;;;;;3.35;1.42;;;12.30;99.90;;;;;;5089664;28;20189;-64
2023/06/06 05:50:40;;;;;;;4.63;1.80;;;12.40;99.90;;;;;;5088462;28;20056;-65
2023/06/06 05:53:06;;;;;;;5.13;1.35;;;12.40;99.90;;;;;;5089577;28;20044;-64
2023/06/06 05:55:33;;;;;;;3.15;1.30;;;12.50;99.90;;;;;;5089254;28;20391;-64
2023/06/06 05:58:01;;;;;;;4.75;1.98;;;12.60;99.90;;;;;;5088572;28;20036;-64
2023/06/06 06:00:29;;;;;;;3.65;1.80;;;12.70;99.90;;;;;;5072210;28;20044;-64
2023/06/06 06:02:58;;;;;;;3.63;1.70;;;12.90;99.90;;;;;;5090609;28;20035;-64
2023/06/06 06:05:31;;;;;;;4.50;1.88;;;13.00;99.90;;;;;;5088820;28;20039;-64
2023/06/06 06:08:01;;;;;;;4.05;1.80;;;13.10;99.90;;;;;;5072261;28;20042;-64
2023/06/06 06:10:32;;;;;;;2.70;1.67;;;13.20;99.90;;;;;;5072594;28;20032;-64
2023/06/06 06:12:59;;;;;;;6.55;1.95;;;13.30;99.90;;;;;;5088495;28;20044;-65
2023/06/06 06:15:26;;;;;;;2.47;1.35;;;13.40;99.90;;;;;;5090143;28;20040;-64
2023/06/06 06:17:52;;;;;;;3.75;1.70;;;13.50;99.90;;;;;;5072100;28;20104;-64
2023/06/06 06:20:22;;;;;;;4.15;1.60;;;13.60;99.90;;;;;;5090004;28;20040;-65
2023/06/06 06:22:48;;;;;;;3.65;1.42;;;13.70;99.90;;;;;;5072150;28;20039;-65
2023/06/06 06:25:14;;;;;;;2.13;1.15;;;13.80;99.90;;;;;;5088924;28;20040;-65
2023/06/06 06:27:41;;;;;;;2.38;1.35;;;13.90;99.90;;;;;;5089743;28;20060;-65
2023/06/06 06:30:09;;;;;;;5.10;1.38;;;14.10;99.90;;;;;;5088839;28;20090;-63
2023/06/06 06:32:36;;;;;;;3.38;1.02;;;14.30;99.90;;;;;;5088099;28;20120;-65
2023/06/06 06:35:03;;;;;;;2.90;1.35;;;14.40;99.90;;;;;;5084314;28;20044;-65
2023/06/06 06:37:30;;;;;;;3.15;1.60;;;14.60;99.90;;;;;;5068566;28;20055;-65
2023/06/06 06:39:56;;;;;;;1.77;1.25;;;14.70;99.90;;;;;;5067693;28;20052;-65
2023/06/06 06:42:23;;;;;;;3.60;1.40;;;14.90;99.90;;;;;;5052022;28;20083;-65
2023/06/06 06:44:49;;;;;;;5.43;1.42;;;15.10;99.90;;;;;;5068169;28;20045;-65
2023/06/06 06:47:16;;;;;;;3.00;1.40;;;15.30;99.90;;;;;;5069163;28;20061;-64
2023/06/06 06:49:42;;;;;;;3.33;1.63;;;15.50;99.90;;;;;;5068875;28;20040;-65
2023/06/06 06:52:11;;;;;;;3.28;1.60;;;15.70;99.90;;;;;;5068238;28;20489;-65
2023/06/06 06:54:57;;;;;;;2.13;1.42;;;15.90;99.90;;;;;;5050908;28;20493;-65
2023/06/06 06:57:26;;;;;;;2.72;1.48;;;16.20;99.90;;;;;;5069479;28;20032;-65
2023/06/06 06:59:53;;;;;;;7.18;1.38;;;16.40;99.90;;;;;;5069666;28;20378;-65
2023/06/06 07:02:21;;;;;;;2.67;1.42;;;16.60;99.90;;;;;;5067505;28;20567;-65
2023/06/06 07:04:47;;;;;;;2.45;1.30;;;16.70;99.90;;;;;;5052093;28;20093;-65
2023/06/06 07:07:17;;;;;;;2.50;1.15;;;16.90;99.90;;;;;;5051410;28;20541;-64
2023/06/06 07:09:46;;;;;;;2.15;1.10;;;17.00;99.90;;;;;;5067505;28;20074;-65
2023/06/06 07:12:12;;;;;;;3.38;1.70;;;17.20;99.90;;;;;;5069369;28;20040;-65
2023/06/06 07:14:39;;;;;;;4.03;1.50;;;17.40;99.90;;;;;;5067105;28;20033;-65
2023/06/06 07:17:07;;;;;;;3.47;1.20;;;17.50;99.90;;;;;;5067861;28;20132;-65
2023/06/06 07:19:34;;;;;;;2.30;1.20;;;17.70;99.90;;;;;;5051298;28;20107;-65
2023/06/06 07:22:00;;;;;;;2.92;1.30;;;17.80;99.90;;;;;;5067387;28;20037;-65
2023/06/06 07:24:26;;;;;;;1.35;1.00;;;18.00;99.90;;;;;;5075267;28;20049;-65
2023/06/06 07:26:52;;;;;;;2.80;0.93;;;18.10;99.90;;;;;;5051064;28;20040;-65
2023/06/06 07:29:19;;;;;;;2.83;1.25;;;18.30;99.90;;;;;;5068790;28;20033;-65
2023/06/06 07:31:45;;;;;;;2.10;1.23;;;18.30;99.90;;;;;;5051170;28;20439;-65
2023/06/06 07:34:10;;;;;;;4.22;1.13;;;18.30;99.90;;;;;;5067859;28;20175;-66
2023/06/06 07:36:36;;;;;;;4.47;1.45;;;18.50;99.90;;;;;;5068684;28;20039;-65
2023/06/06 07:39:03;;;;;;;1.70;1.13;;;18.60;99.90;;;;;;5069359;28;20654;-65
2023/06/06 07:41:30;;;;;;;2.70;1.20;;;18.80;99.90;;;;;;5068106;28;20119;-65
2023/06/06 07:43:56;;;;;;;1.67;1.10;;;18.90;99.90;;;;;;5068676;28;20059;-65
2023/06/06 07:46:22;;;;;;;2.58;1.10;;;19.10;99.90;;;;;;5072743;28;20044;-65
2023/06/06 07:48:48;;;;;;;1.70;0.80;;;19.20;99.90;;;;;;5074992;28;20038;-65
2023/06/06 07:51:14;;;;;;;2.42;1.25;;;19.50;99.90;;;;;;5071488;28;20060;-65
2023/06/06 07:53:41;;;;;;;4.80;1.30;;;19.70;99.90;;;;;;5049600;28;20037;-65
2023/06/06 07:56:07;;;;;;;2.25;1.02;;;19.70;99.90;;;;;;5066204;28;20048;-65
2023/06/06 07:58:43;;;;;;;1.80;0.88;;;19.80;99.90;;;;;;5071287;28;20036;-65
2023/06/06 08:01:13;;;;;;;1.77;1.17;;;19.90;99.90;;;;;;5068402;28;20044;-65
2023/06/06 08:03:39;;;;;;;1.80;1.10;;;20.10;99.90;;;;;;5070055;28;20252;-65
2023/06/06 08:06:06;;;;;;;4.60;1.30;;;20.30;99.90;;;;;;5045662;28;20055;-64
2023/06/06 08:08:32;;;;;;;4.32;1.50;;;20.30;99.90;;;;;;5070903;28;20090;-65
2023/06/06 08:10:58;;;;;;;2.13;0.85;;;20.20;99.90;;;;;;5070453;28;20050;-65
2023/06/06 08:13:23;;;;;;;1.52;0.70;;;20.20;99.90;;;;;;5070080;28;20132;-65
2023/06/06 08:15:49;;;;;;;3.60;1.30;;;20.30;99.90;;;;;;5038018;28;20128;-65
2023/06/06 08:18:16;;;;;;;2.83;1.00;;;20.40;99.90;;;;;;5062606;28;20385;-65
2023/06/06 08:20:41;;;;;;;1.95;0.73;;;20.60;99.90;;;;;;5058699;28;20045;-64
2023/06/06 08:23:07;;;;;;;3.05;1.20;;;20.60;99.90;;;;;;5069804;28;20444;-65
2023/06/06 08:25:42;;;;;;;2.45;1.20;;;20.60;99.90;;;;;;5071357;28;20115;-65
2023/06/06 08:28:07;;;;;;;1.83;0.80;;;20.60;99.90;;;;;;5070925;28;20038;-65
2023/06/06 08:30:33;;;;;;;3.40;1.20;;;20.60;99.90;;;;;;5070581;28;20467;-65
2023/06/06 08:32:59;;;;;;;2.35;0.70;;;20.60;99.90;;;;;;5071306;28;20040;-65
2023/06/06 08:35:25;;;;;;;1.65;0.85;;;20.60;99.90;;;;;;5070833;28;20028;-65
2023/06/06 08:37:52;;;;;;;2.60;1.10;;;20.80;99.90;;;;;;5072067;28;20029;-64
2023/06/06 08:40:18;;;;;;;2.08;1.05;;;21.00;99.90;;;;;;5071343;28;20036;-65
2023/06/06 08:42:48;;;;;;;1.77;0.88;;;21.30;99.90;;;;;;5070211;28;20127;-64
2023/06/06 08:45:15;;;;;;;4.63;1.20;;;21.50;99.90;;;;;;5071574;28;20056;-65
2023/06/06 08:47:43;;;;;;;3.80;1.02;;;21.50;99.90;;;;;;5069855;28;20041;-64
2023/06/06 08:50:09;;;;;;;4.32;1.25;;;21.50;99.90;;;;;;5071635;28;20048;-64
2023/06/06 08:52:37;;;;;;;1.95;1.10;;;21.70;99.90;;;;;;5073081;28;20063;-65
2023/06/06 08:55:04;;;;;;;3.17;1.23;;;21.70;99.90;;;;;;5056663;28;20063;-65
2023/06/06 08:57:31;;;;;;;2.05;0.90;;;21.70;99.90;;;;;;5082942;28;20638;-65
2023/06/06 08:59:57;;;;;;;2.13;1.00;;;22.00;99.90;;;;;;5111008;28;20483;-65
2023/06/06 09:02:23;;;;;;;2.53;0.70;;;22.20;99.90;;;;;;5111687;28;20128;-65
2023/06/06 09:04:51;;;;;;;1.85;0.80;;;22.30;99.90;;;;;;5093762;28;20096;-65
2023/06/06 09:07:18;;;;;;;1.38;0.70;;;22.40;99.90;;;;;;5092307;28;20388;-65
2023/06/06 09:09:47;;;;;;;3.90;1.30;;;22.50;99.90;;;;;;5093523;28;20438;-64
2023/06/06 09:12:13;;;;;;;1.38;0.85;;;22.50;99.90;;;;;;5093455;28;20054;-65
2023/06/06 09:14:39;;;;;;;3.10;0.98;;;22.60;99.90;;;;;;5110516;28;20457;-65
2023/06/06 09:17:05;;;;;;;4.53;1.67;;;22.80;99.90;;;;;;5093422;28;20124;-65
2023/06/06 09:19:32;;;;;;;5.75;1.13;;;22.90;99.90;;;;;;5111973;28;20067;-64
2023/06/06 09:22:00;;;;;;;2.60;1.10;;;23.00;99.90;;;;;;5091811;28;20114;-64
2023/06/06 09:24:26;;;;;;;1.58;0.82;;;23.10;99.90;;;;;;5093053;28;20127;-64
2023/06/06 09:26:52;;;;;;;4.20;1.25;;;22.90;99.90;;;;;;5111231;28;20067;-63
2023/06/06 09:29:18;;;;;;;5.03;1.20;;;23.00;99.90;;;;;;5092632;28;20136;-65
2023/06/06 09:31:44;;;;;;;2.72;1.25;;;23.10;99.90;;;;;;5111457;28;20104;-64
2023/06/06 09:34:10;;;;;;;5.72;1.20;;;23.20;99.90;;;;;;5111036;28;20039;-63
2023/06/06 09:36:43;;;;;;;2.30;1.30;;;23.30;99.90;;;;;;5092269;28;20039;-64
2023/06/06 09:39:15;;;;;;;3.05;1.13;;;23.40;99.90;;;;;;5093030;28;20043;-63
2023/06/06 09:41:41;;;;;;;3.83;1.20;;;23.60;99.90;;;;;;5092441;28;20032;-65
2023/06/06 09:44:28;;;;;;;2.88;1.35;;;23.70;99.90;;;;;;5111380;28;20052;-65
2023/06/06 09:47:03;;;;;;;7.22;2.28;;;23.80;99.90;;;;;;5093225;28;20163;-64
2023/06/06 09:49:36;;;;;;;3.25;1.25;;;24.00;99.90;;;;;;5092229;28;20126;-65
2023/06/06 09:52:04;;;;;;;2.70;1.27;;;24.00;99.90;;;;;;5092563;28;20060;-65
2023/06/06 09:54:30;;;;;;;3.30;1.23;;;24.10;99.90;;;;;;5075861;28;20043;-64
2023/06/06 09:56:57;;;;;;;6.90;1.63;;;24.20;99.70;;;;;;5091941;28;20036;-65
2023/06/06 09:59:26;;;;;;;2.42;1.13;;;24.40;99.60;;;;;;5104346;28;20113;-64
2023/06/06 10:02:05;;;;;;;6.97;1.50;;;24.50;99.40;;;;;;5092363;28;20031;-64
2023/06/06 10:04:33;;;;;;;2.80;1.13;;;24.60;98.20;;;;;;5091954;28;20104;-64
2023/06/06 10:07:03;;;;;;;3.40;1.13;;;24.60;98.90;;;;;;5093025;28;20629;-65
2023/06/06 10:09:29;;;;;;;5.07;1.40;;;24.70;98.40;;;;;;5087177;28;20032;-65
2023/06/06 10:12:19;;;;;;;2.72;1.58;;;24.70;98.40;;;;;;5109977;28;20587;-65
2023/06/06 10:14:56;;;;;;;2.78;1.48;;;24.80;97.40;;;;;;5085491;28;20072;-65
2023/06/06 10:17:24;;;;;;;2.95;1.20;;;24.80;98.00;;;;;;5055047;28;20028;-65
2023/06/06 10:19:52;;;;;;;6.93;1.27;;;24.70;97.60;;;;;;5071898;28;20071;-64
2023/06/06 10:22:18;;;;;;;2.30;1.38;;;24.70;97.60;;;;;;5085130;28;20404;-64
2023/06/06 10:24:46;;;;;;;2.65;1.20;;;24.70;97.60;;;;;;5071473;28;20046;-64
2023/06/06 10:27:26;;;;;;;2.38;1.05;;;24.70;97.20;;;;;;5071745;28;20675;-64
2023/06/06 10:30:14;;;;;;;1.75;0.85;;;24.80;96.70;;;;;;5090127;28;20031;-64
2023/06/06 10:33:10;;;;;;;3.63;1.27;;;25.00;96.50;;;;;;5089505;28;20097;-63
2023/06/06 10:35:38;;;;;;;1.10;0.70;;;25.20;94.90;;;;;;5089979;28;20481;-64
2023/06/06 10:38:09;;;;;;;3.97;1.13;;;25.20;96.30;;;;;;5071322;28;20051;-65
2023/06/06 10:40:42;;;;;;;2.22;1.10;;;25.20;96.10;;;;;;5055204;28;20044;-65
2023/06/06 10:43:10;;;;;;;4.13;1.23;;;25.20;96.00;;;;;;5090033;28;20040;-65
2023/06/06 10:45:44;;;;;;;2.17;0.80;;;25.30;95.80;;;;;;5071443;28;20123;-64
2023/06/06 10:48:10;;;;;;;2.03;1.25;;;25.50;95.50;;;;;;5089691;28;20495;-62
2023/06/06 10:50:36;;;;;;;2.60;1.10;;;25.60;95.50;;;;;;5068093;28;20049;-62
2023/06/06 10:53:06;;;;;;;5.22;1.42;;;25.50;95.40;;;;;;5068734;28;20044;-62
2023/06/06 10:55:32;;;;;;;2.42;1.25;;;25.60;95.20;;;;;;5068261;28;20072;-62
2023/06/06 10:58:11;;;;;;;4.15;1.42;;;25.70;95.10;;;;;;5069429;28;20040;-62
2023/06/06 11:00:43;;;;;;;3.58;1.02;;;25.50;94.30;;;;;;5084719;28;20044;-62
2023/06/06 11:03:10;;;;;;;2.20;1.10;;;25.40;94.40;;;;;;5068200;28;20041;-63
2023/06/06 11:06:04;;;;;;;3.10;1.40;;;25.50;94.80;;;;;;5067939;28;20044;-62
2023/06/06 11:08:48;;;;;;;2.92;1.15;;;25.50;93.80;;;;;;5069342;28;20041;-62
2023/06/06 11:11:23;;;;;;;5.20;1.20;;;25.60;93.60;;;;;;5068037;28;20851;-62
2023/06/06 11:13:59;;;;;;;1.65;0.98;;;25.60;94.20;;;;;;5068764;28;20556;-62
2023/06/06 11:16:37;;;;;;;2.97;1.05;;;25.70;93.80;;;;;;5071038;28;20455;-61
2023/06/06 11:19:08;;;;;;;2.53;1.58;;;25.80;93.90;;;;;;5089458;28;20040;-62
2023/06/06 11:21:38;;;;;;;3.05;1.20;;;25.80;93.70;;;;;;5083877;28;20063;-62
2023/06/06 11:24:05;;;;;;;2.25;1.08;;;25.90;93.80;;;;;;5088866;28;20050;-63
2023/06/06 11:26:33;;;;;;;3.17;1.52;;;25.90;93.70;;;;;;5089416;28;20069;-62
2023/06/06 11:29:00;;;;;;;3.83;1.08;;;26.00;93.70;;;;;;5089346;28;20040;-62
2023/06/06 11:31:27;;;;;;;3.75;1.33;;;26.00;93.70;;;;;;5089067;28;20063;-62
2023/06/06 11:34:10;;;;;;;2.40;0.95;;;25.90;93.20;;;;;;5091286;28;20527;-63
2023/06/06 11:36:37;;;;;;;2.80;1.17;;;25.80;93.00;;;;;;5092363;28;20035;-63
2023/06/06 11:39:08;;;;;;;3.10;1.55;;;25.70;93.10;;;;;;5093090;28;20511;-63
2023/06/06 11:41:47;;;;;;;3.85;1.65;;;25.60;93.20;;;;;;5074409;28;20043;-62
2023/06/06 11:44:16;;;;;;;4.20;1.63;;;25.60;92.60;;;;;;5092087;28;20050;-62
2023/06/06 11:46:48;;;;;;;;;;;25.50;93.10;;;;;;5093411;28;20556;-62
2023/06/06 11:49:15;;;;;;;5.30;1.42;;;25.40;91.70;;;;;;5091232;28;19969;-62
2023/06/06 11:51:57;;;;;;;7.18;1.50;;;25.40;92.90;;;;;;5074542;28;20052;-63
2023/06/06 11:54:29;;;;;;;3.38;1.45;;;25.30;93.00;;;;;;5039423;28;20508;-63
2023/06/06 11:57:02;;;;;;;2.15;1.42;;;25.20;93.20;;;;;;5050981;28;20053;-63
2023/06/06 11:59:29;;;;;;;6.40;2.50;;;25.30;93.20;;;;;;5034604;28;20029;-63
2023/06/06 12:01:56;;;;;;;3.10;1.38;;;25.30;93.20;;;;;;5050734;28;20078;-62
2023/06/06 12:04:23;;;;;;;3.03;1.55;;;25.50;92.80;;;;;;5051025;28;20087;-62
2023/06/06 12:06:51;;;;;;;4.00;1.98;;;25.50;92.80;;;;;;5051280;28;20628;-63
2023/06/06 12:09:19;;;;;;;2.67;1.50;;;25.40;92.70;;;;;;5050244;28;20482;-63
2023/06/06 12:11:55;;;;;;;4.50;1.90;;;25.30;92.50;;;;;;5051146;28;20045;-63
2023/06/06 12:14:25;;;;;;;6.63;2.50;;;25.20;92.40;;;;;;5050914;28;20044;-63
2023/06/06 12:16:52;;;;;;;3.83;1.33;;;25.10;92.50;;;;;;5060962;28;20055;-63
2023/06/06 12:19:18;;;;;;;5.07;1.85;;;25.10;92.40;;;;;;5092127;28;20032;-63
2023/06/06 12:21:49;;;;;;;3.60;1.75;;;25.00;92.40;;;;;;5091577;28;20040;-63
2023/06/06 12:24:19;;;;;;;2.58;1.38;;;24.90;92.20;;;;;;5090297;28;20629;-63
2023/06/06 12:27:05;;;;;;;3.47;1.55;;;24.80;92.30;;;;;;5092095;28;20043;-62
2023/06/06 12:29:35;;;;;;;5.43;1.67;;;24.70;92.10;;;;;;5090946;28;20175;-63
2023/06/06 12:32:26;;;;;;;2.22;1.17;;;24.60;92.40;;;;;;5091022;28;20047;-63
2023/06/06 12:35:02;;;;;;;3.95;1.55;;;24.50;92.00;;;;;;5078175;28;20043;-63
2023/06/06 12:37:42;;;;;;;2.65;1.33;;;24.30;92.00;;;;;;5069973;28;20106;-62
2023/06/06 12:40:33;;;;;;;2.95;1.33;;;24.20;92.40;;;;;;5070449;28;20489;-63
2023/06/06 12:43:12;;;;;;;4.30;1.65;;;24.10;92.10;;;;;;5064097;28;20037;-63
2023/06/06 12:45:38;;;;;;;3.50;1.50;;;24.00;92.30;;;;;;5050442;28;20028;-63
2023/06/06 12:48:04;;;;;;;2.22;1.00;;;24.00;92.40;;;;;;5050284;28;20714;-63
2023/06/06 12:50:30;;;;;;;3.92;1.50;;;24.00;92.50;;;;;;5054229;28;20052;-63
2023/06/06 12:52:56;;;;;;;3.58;1.48;;;24.10;92.50;;;;;;5069453;28;20043;-62
2023/06/06 12:55:22;;;;;;;2.45;1.38;;;24.00;92.00;;;;;;5069921;28;20041;-63
2023/06/06 12:57:48;;;;;;;3.53;1.70;;;23.90;92.40;;;;;;5069559;28;20477;-63